createdAt,value
2023-05-02T00:02:13.380Z,100314.62
2023-05-02T00:04:46.284Z,100315.58
2023-05-02T00:07:18.687Z,100315.24
2023-05-02T00:09:50.944Z,100311.90
2023-05-02T00:12:23.639Z,100310.45
2023-05-02T00:14:55.843Z,100312.70
2023-05-02T00:17:28.232Z,100307.67
2023-05-02T00:20:00.993Z,100306.71
2023-05-02T00:22:33.381Z,100306.32
2023-05-02T00:25:06.664Z,100303.45
2023-05-02T00:27:38.874Z,100299.16
2023-05-02T00:30:12.740Z,100299.58
2023-05-02T00:32:45.169Z,100300.58
2023-05-02T00:35:18.101Z,100296.50
2023-05-02T00:37:50.309Z,100293.33
2023-05-02T00:40:22.953Z,100290.54
2023-05-02T00:42:55.864Z,100286.46
2023-05-02T00:45:28.451Z,100288.64
2023-05-02T00:48:00.798Z,100288.48
2023-05-02T00:50:34.088Z,100287.70
2023-05-02T00:53:06.786Z,100285.25
2023-05-02T00:55:39.787Z,100284.45
2023-05-02T00:58:15.109Z,100285.10
2023-05-02T01:01:04.226Z,100284.39
2023-05-02T01:03:47.156Z,100283.36
2023-05-02T01:06:33.176Z,100283.95
2023-05-02T01:09:18.433Z,100285.95
2023-05-02T01:11:53.670Z,100290.11
2023-05-02T01:14:29.183Z,100287.89
2023-05-02T01:17:05.686Z,100284.62
2023-05-02T01:19:40.687Z,100287.17
2023-05-02T01:22:14.576Z,100286.23
2023-05-02T01:24:56.226Z,100291.20
2023-05-02T01:27:38.100Z,100288.73
2023-05-02T01:30:12.696Z,100287.52
2023-05-02T01:32:47.603Z,100292.96
2023-05-02T01:35:19.775Z,100294.65
2023-05-02T01:37:54.462Z,100290.81
2023-05-02T01:40:26.577Z,100281.06
2023-05-02T01:43:00.791Z,100293.62
2023-05-02T01:45:35.957Z,100291.88
2023-05-02T01:48:12.048Z,100295.56
2023-05-02T01:50:46.841Z,100296.19
2023-05-02T01:53:22.520Z,100303.33
2023-05-02T01:55:56.016Z,100306.98
2023-05-02T01:58:31.664Z,100304.04
2023-05-02T02:01:05.923Z,100296.04
2023-05-02T02:03:38.633Z,100290.11
2023-05-02T02:06:12.903Z,100289.06
2023-05-02T02:08:45.396Z,100281.40
2023-05-02T02:11:26.079Z,100279.17
2023-05-02T02:14:07.673Z,100282.67
2023-05-02T02:16:43.119Z,100270.30
2023-05-02T02:19:17.120Z,100283.65
2023-05-02T02:21:51.350Z,100288.62
2023-05-02T02:24:25.295Z,100288.30
2023-05-02T02:26:57.652Z,100286.46
2023-05-02T02:29:30.303Z,100286.23
2023-05-02T02:32:02.631Z,100285.66
2023-05-02T02:34:34.990Z,100293.65
2023-05-02T02:37:11.360Z,100303.34
2023-05-02T02:39:53.056Z,100313.31
2023-05-02T02:42:40.144Z,100321.55
2023-05-02T02:45:28.319Z,100322.35
2023-05-02T02:48:11.377Z,100315.89
2023-05-02T02:50:56.182Z,100320.28
2023-05-02T02:53:42.080Z,100327.88
2023-05-02T02:56:21.015Z,100334.52
2023-05-02T02:58:59.707Z,100339.95
2023-05-02T03:01:34.631Z,100348.03
2023-05-02T03:04:10.109Z,100334.19
2023-05-02T03:06:43.131Z,100343.72
2023-05-02T03:09:19.802Z,100350.04
2023-05-02T03:11:52.715Z,100352.98
2023-05-02T03:14:25.890Z,100353.55
2023-05-02T03:17:00.753Z,100355.71
2023-05-02T03:19:33.851Z,100355.46
2023-05-02T03:22:06.974Z,100354.83
2023-05-02T03:24:39.500Z,100353.15
2023-05-02T03:27:12.510Z,100358.98
2023-05-02T03:29:45.928Z,100366.01
2023-05-02T03:32:18.223Z,100377.98
2023-05-02T03:34:50.651Z,100374.02
2023-05-02T03:37:23.402Z,100384.92
2023-05-02T03:39:57.568Z,100390.84
2023-05-02T03:42:30.398Z,100397.09
2023-05-02T03:45:03.959Z,100401.33
2023-05-02T03:47:36.315Z,100408.45
2023-05-02T03:50:10.370Z,100414.30
2023-05-02T03:52:42.881Z,100423.74
2023-05-02T03:55:15.824Z,100427.57
2023-05-02T03:57:48.402Z,100431.79
2023-05-02T04:00:21.167Z,100431.58
2023-05-02T04:02:57.513Z,100433.17
2023-05-02T04:05:34.826Z,100435.39
2023-05-02T04:08:07.465Z,100433.85
2023-05-02T04:10:40.643Z,100443.14
2023-05-02T04:13:15.484Z,100443.30
2023-05-02T04:15:50.219Z,100448.02
2023-05-02T04:18:31.180Z,100453.30
2023-05-02T04:21:04.639Z,100449.22
2023-05-02T04:23:37.531Z,100456.09
2023-05-02T04:26:11.070Z,100452.48
2023-05-02T04:28:49.948Z,100455.52
2023-05-02T04:31:23.335Z,100460.88
2023-05-02T04:33:56.987Z,100457.53
2023-05-02T04:36:34.176Z,100459.23
2023-05-02T04:39:08.051Z,100459.16
2023-05-02T04:41:43.622Z,100458.38
2023-05-02T04:44:16.844Z,100457.90
2023-05-02T04:46:49.620Z,100457.17
2023-05-02T04:49:22.233Z,100455.04
2023-05-02T04:51:55.326Z,100455.05
2023-05-02T04:54:29.297Z,100456.56
2023-05-02T04:57:03.561Z,100453.92
2023-05-02T04:59:38.611Z,100461.13
2023-05-02T05:02:13.413Z,100466.00
2023-05-02T05:04:46.913Z,100461.13
2023-05-02T05:07:19.780Z,100462.16
2023-05-02T05:09:54.375Z,100458.48
2023-05-02T05:12:29.379Z,100454.33
2023-05-02T05:15:02.213Z,100454.34
2023-05-02T05:17:34.950Z,100453.13
2023-05-02T05:20:11.028Z,100449.63
2023-05-02T05:22:45.852Z,100453.15
2023-05-02T05:25:20.262Z,100456.27
2023-05-02T05:27:56.084Z,100454.74
2023-05-02T05:30:30.870Z,100464.27
2023-05-02T05:33:04.226Z,100470.67
2023-05-02T05:35:36.868Z,100471.16
2023-05-02T05:38:09.357Z,100472.30
2023-05-02T05:40:43.755Z,100474.45
2023-05-02T05:43:17.367Z,100472.77
2023-05-02T05:45:53.196Z,100455.15
2023-05-02T05:48:27.384Z,100473.91
2023-05-02T05:51:00.126Z,100482.25
2023-05-02T05:53:32.547Z,100484.90
2023-05-02T05:56:13.515Z,100493.75
2023-05-02T05:58:54.983Z,100501.77
2023-05-02T06:01:27.811Z,100505.06
2023-05-02T06:04:00.755Z,100513.06
2023-05-02T06:06:33.369Z,100514.86
2023-05-02T06:09:05.786Z,100515.91
2023-05-02T06:11:39.225Z,100525.02
2023-05-02T06:14:12.482Z,100519.66
2023-05-02T06:16:45.115Z,100518.89
2023-05-02T06:19:17.867Z,100524.02
2023-05-02T06:21:50.158Z,100527.47
2023-05-02T06:24:22.530Z,100530.61
2023-05-02T06:26:54.810Z,100534.85
2023-05-02T06:29:27.602Z,100521.98
2023-05-02T06:31:59.847Z,100543.30
2023-05-02T06:34:34.587Z,100548.77
2023-05-02T06:37:06.143Z,100561.30
2023-05-02T06:39:38.579Z,100560.42
2023-05-02T06:42:10.907Z,100562.09
2023-05-02T06:44:43.255Z,100578.39
2023-05-02T06:47:15.689Z,100573.13
2023-05-02T06:49:48.235Z,100582.73
2023-05-02T06:52:20.441Z,100579.88
2023-05-02T06:54:53.001Z,100564.34
2023-05-02T06:57:25.465Z,100588.86
2023-05-02T06:59:57.897Z,100594.27
2023-05-02T07:02:30.277Z,100595.44
2023-05-02T07:05:02.733Z,100600.23
2023-05-02T07:07:34.970Z,100596.97
2023-05-02T07:10:08.174Z,100605.10
2023-05-02T07:12:40.593Z,100613.13
2023-05-02T07:15:16.617Z,100608.98
2023-05-02T07:17:49.797Z,100618.92
2023-05-02T07:20:22.332Z,100622.81
2023-05-02T07:22:55.038Z,100625.21
2023-05-02T07:25:28.094Z,100631.10
2023-05-02T07:28:00.294Z,100637.11
2023-05-02T07:30:32.739Z,100643.51
2023-05-02T07:33:05.083Z,100645.85
2023-05-02T07:35:37.391Z,100649.02
2023-05-02T07:38:09.619Z,100652.77
2023-05-02T07:40:41.971Z,100656.23
2023-05-02T07:43:14.327Z,100656.52
2023-05-02T07:45:46.898Z,100656.71
2023-05-02T07:48:20.354Z,100664.35
2023-05-02T07:50:52.861Z,100668.41
2023-05-02T07:53:25.234Z,100673.46
2023-05-02T07:55:57.399Z,100671.09
2023-05-02T07:58:29.755Z,100668.86
2023-05-02T08:01:02.253Z,100666.13
2023-05-02T08:03:35.072Z,100667.08
2023-05-02T08:06:08.513Z,100670.30
2023-05-02T08:08:41.081Z,100667.80
2023-05-02T08:11:13.452Z,100673.20
2023-05-02T08:13:45.610Z,100675.90
2023-05-02T08:16:18.371Z,100687.05
2023-05-02T08:18:51.111Z,100692.67
2023-05-02T08:21:23.293Z,100689.30
2023-05-02T08:23:58.733Z,100694.52
2023-05-02T08:26:31.194Z,100697.16
2023-05-02T08:29:04.570Z,100696.67
2023-05-02T08:31:37.011Z,100707.90
2023-05-02T08:34:09.733Z,100706.78
2023-05-02T08:36:41.935Z,100701.16
2023-05-02T08:39:14.347Z,100710.32
2023-05-02T08:41:47.011Z,100712.15
2023-05-02T08:44:20.034Z,100711.66
2023-05-02T08:46:53.788Z,100708.77
2023-05-02T08:49:29.037Z,100713.50
2023-05-02T08:52:02.829Z,100715.98
2023-05-02T08:54:35.625Z,100718.40
2023-05-02T08:57:08.997Z,100716.91
2023-05-02T08:59:41.576Z,100721.57
2023-05-02T09:02:25.121Z,100725.48
2023-05-02T09:05:02.134Z,100725.96
2023-05-02T09:07:47.274Z,100727.70
2023-05-02T09:10:19.655Z,100728.08
2023-05-02T09:12:52.251Z,100738.23
2023-05-02T09:15:25.506Z,100728.72
2023-05-02T09:17:58.348Z,100741.58
2023-05-02T09:20:30.859Z,100748.71
2023-05-02T09:23:03.263Z,100749.61
2023-05-02T09:25:40.515Z,100755.00
2023-05-02T09:28:12.831Z,100751.00
2023-05-02T09:30:45.570Z,100754.48
2023-05-02T09:33:29.296Z,100759.52
2023-05-02T09:36:01.465Z,100756.90
2023-05-02T09:38:34.262Z,100757.65
2023-05-02T09:41:06.852Z,100749.64
2023-05-02T09:43:39.440Z,100763.89
2023-05-02T09:46:13.247Z,100770.45
2023-05-02T09:48:59.024Z,100771.93
2023-05-02T09:51:31.422Z,100776.28
2023-05-02T09:54:03.811Z,100784.44
2023-05-02T09:56:56.484Z,100751.74
2023-05-02T09:59:29.062Z,100784.39
2023-05-02T10:02:03.167Z,100788.31
2023-05-02T10:04:37.227Z,100788.23
2023-05-02T10:07:11.014Z,100790.75
2023-05-02T10:09:47.398Z,100792.70
2023-05-02T10:12:24.581Z,100795.23
2023-05-02T10:15:05.937Z,100792.61
2023-05-02T10:17:46.197Z,100801.04
2023-05-02T10:20:25.478Z,100798.15
2023-05-02T10:23:02.286Z,100800.86
2023-05-02T10:25:35.719Z,100799.18
2023-05-02T10:28:09.272Z,100809.76
2023-05-02T10:30:42.707Z,100813.52
2023-05-02T10:33:17.347Z,100810.81
2023-05-02T10:35:49.656Z,100813.92
2023-05-02T10:38:24.750Z,100824.68
2023-05-02T10:41:02.104Z,100821.56
2023-05-02T10:43:37.939Z,100825.10
2023-05-02T10:46:33.454Z,100831.44
2023-05-02T10:49:05.191Z,100816.98
2023-05-02T10:51:39.433Z,100832.48
2023-05-02T10:54:25.864Z,100830.33
2023-05-02T10:57:09.489Z,100828.53
2023-05-02T10:59:43.263Z,100833.01
2023-05-02T11:02:50.385Z,100836.45
2023-05-02T11:05:23.196Z,100842.66
2023-05-02T11:08:34.209Z,100841.29
2023-05-02T11:11:37.033Z,100843.17
2023-05-02T11:14:09.972Z,100848.73
2023-05-02T11:17:09.415Z,100846.48
2023-05-02T11:20:26.249Z,100849.82
2023-05-02T11:23:00.916Z,100841.14
2023-05-02T11:25:38.255Z,100848.86
2023-05-02T11:28:31.326Z,100849.16
2023-05-02T11:31:03.682Z,100854.68
2023-05-02T11:33:35.975Z,100853.21
2023-05-02T11:36:08.940Z,100860.73
2023-05-02T11:38:41.638Z,100868.05
2023-05-02T11:41:14.394Z,100873.02
2023-05-02T11:43:46.722Z,100870.05
2023-05-02T11:46:21.173Z,100876.06
2023-05-02T11:48:53.825Z,100880.85
2023-05-02T11:51:27.693Z,100877.52
2023-05-02T11:54:00.586Z,100884.76
2023-05-02T11:56:33.133Z,100887.42
2023-05-02T11:59:06.521Z,100888.73
2023-05-02T12:01:48.352Z,100889.73
2023-05-02T12:04:24.054Z,100888.56
2023-05-02T12:07:00.105Z,100891.73
2023-05-02T12:09:32.731Z,100889.01
2023-05-02T12:12:05.957Z,100901.17
2023-05-02T12:14:39.552Z,100898.30
2023-05-02T12:17:11.895Z,100902.50
2023-05-02T12:19:44.651Z,100903.89
2023-05-02T12:22:17.274Z,100912.27
2023-05-02T12:24:50.714Z,100913.34
2023-05-02T12:27:23.545Z,100916.05
2023-05-02T12:29:57.520Z,100913.91
2023-05-02T12:32:34.372Z,100915.95
2023-05-02T12:35:21.946Z,100913.56
2023-05-02T12:37:56.227Z,100917.99
2023-05-02T12:40:28.980Z,100922.61
2023-05-02T12:43:07.443Z,100928.41
2023-05-02T12:45:40.929Z,100926.16
2023-05-02T12:48:24.458Z,100930.12
2023-05-02T12:50:57.748Z,100928.73
2023-05-02T12:53:43.967Z,100931.31
2023-05-02T12:56:18.011Z,100936.70
2023-05-02T12:58:51.132Z,100943.17
2023-05-02T13:01:23.935Z,100941.65
2023-05-02T13:03:56.808Z,100945.13
2023-05-02T13:06:29.857Z,100937.79
2023-05-02T13:09:02.654Z,100956.10
2023-05-02T13:11:34.990Z,100959.02
2023-05-02T13:14:07.418Z,100962.80
2023-05-02T13:16:40.613Z,100952.46
2023-05-02T13:19:13.523Z,100953.54
2023-05-02T13:21:46.054Z,100973.01
2023-05-02T13:24:18.605Z,100972.14
2023-05-02T13:26:51.145Z,100977.84
2023-05-02T13:29:23.789Z,100974.50
2023-05-02T13:31:56.602Z,100984.58
2023-05-02T13:34:29.033Z,100986.80
2023-05-02T13:37:01.280Z,100991.02
2023-05-02T13:39:33.571Z,100991.55
2023-05-02T13:42:06.482Z,100993.08
2023-05-02T13:44:39.064Z,100993.61
2023-05-02T13:47:12.578Z,100997.81
2023-05-02T13:49:44.940Z,100994.60
2023-05-02T13:52:17.104Z,100992.92
2023-05-02T13:54:49.971Z,100991.79
2023-05-02T13:57:22.343Z,100994.63
2023-05-02T13:59:56.374Z,100999.02
2023-05-02T14:02:29.449Z,101000.66
2023-05-02T14:05:01.921Z,101012.77
2023-05-02T14:07:34.289Z,101017.35
2023-05-02T14:10:07.993Z,101019.66
2023-05-02T14:12:40.441Z,101021.29
2023-05-02T14:15:14.149Z,101023.15
2023-05-02T14:17:46.734Z,101020.26
2023-05-02T14:20:19.059Z,101027.17
2023-05-02T14:22:51.507Z,101025.82
2023-05-02T14:25:23.848Z,101023.80
2023-05-02T14:27:56.982Z,101027.26
2023-05-02T14:30:29.835Z,101034.26
2023-05-02T14:33:02.918Z,101034.98
2023-05-02T14:35:35.365Z,101036.91
2023-05-02T14:38:07.579Z,101046.32
2023-05-02T14:40:40.428Z,101045.41
2023-05-02T14:43:16.018Z,101037.86
2023-05-02T14:45:48.334Z,101053.60
2023-05-02T14:48:20.654Z,101057.70
2023-05-02T14:50:53.965Z,101057.45
2023-05-02T14:53:26.698Z,101055.28
2023-05-02T14:55:59.620Z,101054.71
2023-05-02T14:58:32.618Z,101053.77
2023-05-02T15:01:05.444Z,101052.96
2023-05-02T15:03:52.436Z,101058.41
2023-05-02T15:06:34.012Z,101061.23
2023-05-02T15:09:08.833Z,101065.80
2023-05-02T15:11:40.005Z,101068.30
2023-05-02T15:14:13.224Z,101067.90
2023-05-02T15:16:45.651Z,101069.77
2023-05-02T15:19:17.949Z,101067.33
2023-05-02T15:21:50.373Z,101063.78
2023-05-02T15:24:22.784Z,101079.30
2023-05-02T15:26:55.928Z,101083.73
2023-05-02T15:29:29.516Z,101082.77
2023-05-02T15:32:02.391Z,101080.20
2023-05-02T15:34:35.426Z,101084.31
2023-05-02T15:37:10.494Z,101088.81
2023-05-02T15:39:43.458Z,101088.04
2023-05-02T15:42:15.533Z,101091.65
2023-05-02T15:44:47.963Z,101096.61
2023-05-02T15:47:22.356Z,101093.85
2023-05-02T15:49:55.692Z,101097.09
2023-05-02T15:52:30.778Z,101083.66
2023-05-02T15:55:04.412Z,101097.48
2023-05-02T15:57:36.560Z,101104.41
2023-05-02T16:00:17.127Z,101101.84
2023-05-02T16:02:50.083Z,101095.63
2023-05-02T16:05:23.291Z,101110.02
2023-05-02T16:07:57.289Z,101097.80
2023-05-02T16:10:29.953Z,101108.58
2023-05-02T16:13:02.745Z,101110.34
2023-05-02T16:15:35.276Z,101116.61
2023-05-02T16:18:08.602Z,101120.54
2023-05-02T16:20:42.282Z,101126.86
2023-05-02T16:23:14.850Z,101128.54
2023-05-02T16:25:47.235Z,101131.85
2023-05-02T16:28:19.713Z,101137.18
2023-05-02T16:30:52.309Z,101136.81
2023-05-02T16:33:27.526Z,101142.49
2023-05-02T16:36:07.756Z,101147.86
2023-05-02T16:38:40.689Z,101147.45
2023-05-02T16:41:14.062Z,101151.92
2023-05-02T16:43:47.080Z,101154.82
2023-05-02T16:46:19.748Z,101162.59
2023-05-02T16:48:52.620Z,101165.66
2023-05-02T16:51:25.426Z,101168.88
2023-05-02T16:54:00.438Z,101166.11
2023-05-02T16:56:33.005Z,101171.58
2023-05-02T16:59:05.255Z,101170.94
2023-05-02T17:01:38.832Z,101162.47
2023-05-02T17:04:12.924Z,101176.81
2023-05-02T17:06:45.389Z,101174.59
2023-05-02T17:09:18.553Z,101179.20
2023-05-02T17:11:51.014Z,101168.12
2023-05-02T17:14:23.910Z,101175.63
2023-05-02T17:16:59.408Z,101187.60
2023-05-02T17:19:34.024Z,101188.51
2023-05-02T17:22:06.952Z,101189.28
2023-05-02T17:24:39.288Z,101188.29
2023-05-02T17:27:12.625Z,101185.33
2023-05-02T17:29:45.023Z,101196.22
2023-05-02T17:32:17.480Z,101201.23
2023-05-02T17:34:49.968Z,101202.93
2023-05-02T17:37:22.959Z,101214.19
2023-05-02T17:39:55.974Z,101214.38
2023-05-02T17:42:29.075Z,101215.61
2023-05-02T17:45:01.767Z,101222.89
2023-05-02T17:47:37.157Z,101223.27
2023-05-02T17:50:12.213Z,101226.58
2023-05-02T17:52:43.149Z,101231.64
2023-05-02T17:55:18.369Z,101239.88
2023-05-02T17:57:51.276Z,101241.36
2023-05-02T18:00:24.292Z,101246.98
2023-05-02T18:02:57.645Z,101248.55
2023-05-02T18:05:30.478Z,101251.55
2023-05-02T18:08:02.914Z,101244.85
2023-05-02T18:10:40.352Z,101260.09
2023-05-02T18:13:13.190Z,101260.68
2023-05-02T18:15:45.905Z,101254.61
2023-05-02T18:18:18.687Z,101243.98
2023-05-02T18:20:51.258Z,101255.38
2023-05-02T18:23:24.023Z,101255.66
2023-05-02T18:25:57.121Z,101258.30
2023-05-02T18:28:29.503Z,101260.98
2023-05-02T18:31:02.293Z,101269.77
2023-05-02T18:33:34.742Z,101268.60
2023-05-02T18:36:08.145Z,101272.67
2023-05-02T18:38:42.186Z,101279.55
2023-05-02T18:41:14.830Z,101280.35
2023-05-02T18:43:47.227Z,101291.86
2023-05-02T18:46:19.778Z,101301.10
2023-05-02T18:48:52.245Z,101308.33
2023-05-02T18:51:25.533Z,101312.21
2023-05-02T18:53:58.287Z,101314.70
2023-05-02T18:56:31.323Z,101320.50
2023-05-02T18:59:03.532Z,101311.93
2023-05-02T19:01:36.443Z,101327.67
2023-05-02T19:04:08.779Z,101325.67
2023-05-02T19:06:42.218Z,101333.14
2023-05-02T19:09:15.741Z,101333.80
2023-05-02T19:11:48.172Z,101341.78
2023-05-02T19:14:20.633Z,101342.67
2023-05-02T19:16:52.910Z,101347.69
2023-05-02T19:19:25.178Z,101337.12
2023-05-02T19:21:57.926Z,101357.02
2023-05-02T19:24:30.344Z,101360.56
2023-05-02T19:27:05.894Z,101360.29
2023-05-02T19:29:38.577Z,101363.21
2023-05-02T19:32:11.273Z,101365.45
2023-05-02T19:34:44.000Z,101368.54
2023-05-02T19:37:16.635Z,101372.16
2023-05-02T19:39:49.024Z,101373.11
2023-05-02T19:42:21.532Z,101375.60
2023-05-02T19:44:54.385Z,101376.50
2023-05-02T19:47:27.750Z,101378.27
2023-05-02T19:50:00.432Z,101383.25
2023-05-02T19:52:32.794Z,101371.83
2023-05-02T19:55:05.463Z,101374.09
2023-05-02T19:57:37.875Z,101389.16
2023-05-02T20:00:14.185Z,101389.48
2023-05-02T20:02:47.762Z,101391.01
2023-05-02T20:05:21.436Z,101393.17
2023-05-02T20:07:54.205Z,101391.02
2023-05-02T20:10:28.161Z,101390.57
2023-05-02T20:13:00.452Z,101394.98
2023-05-02T20:15:32.935Z,101399.40
2023-05-02T20:18:05.478Z,101400.40
2023-05-02T20:20:37.795Z,101393.51
2023-05-02T20:23:10.206Z,101406.92
2023-05-02T20:25:43.003Z,101412.64
2023-05-02T20:28:15.758Z,101413.14
2023-05-02T20:30:48.003Z,101414.45
2023-05-02T20:33:20.230Z,101424.17
2023-05-02T20:35:57.562Z,101427.47
2023-05-02T20:38:30.535Z,101424.21
2023-05-02T20:41:07.895Z,101434.27
2023-05-02T20:43:40.349Z,101440.61
2023-05-02T20:46:13.665Z,101441.77
2023-05-02T20:48:45.846Z,101443.92
2023-05-02T20:51:18.588Z,101445.61
2023-05-02T20:53:51.610Z,101441.76
2023-05-02T20:56:23.894Z,101443.70
2023-05-02T20:58:57.190Z,101451.04
2023-05-02T21:01:29.757Z,101455.62
2023-05-02T21:04:08.552Z,101454.80
2023-05-02T21:06:41.410Z,101458.27
2023-05-02T21:09:14.240Z,101458.30
2023-05-02T21:11:47.884Z,101460.69
2023-05-02T21:14:20.038Z,101466.11
2023-05-02T21:16:52.660Z,101465.74
2023-05-02T21:19:25.493Z,101466.44
2023-05-02T21:21:58.060Z,101469.14
2023-05-02T21:24:30.556Z,101471.60
2023-05-02T21:27:03.019Z,101475.64
2023-05-02T21:29:35.886Z,101480.54
2023-05-02T21:32:08.671Z,101482.91
2023-05-02T21:34:41.420Z,101485.12
2023-05-02T21:37:13.774Z,101480.40
2023-05-02T21:39:46.424Z,101484.38
2023-05-02T21:42:18.854Z,101479.35
2023-05-02T21:44:52.292Z,101464.58
2023-05-02T21:47:24.706Z,101478.23
2023-05-02T21:49:58.362Z,101477.00
2023-05-02T21:52:31.735Z,101479.57
2023-05-02T21:55:04.094Z,101476.75
2023-05-02T21:57:36.305Z,101469.91
2023-05-02T22:00:13.127Z,101474.46
2023-05-02T22:02:46.831Z,101476.81
2023-05-02T22:05:19.388Z,101484.55
2023-05-02T22:07:52.493Z,101483.52
2023-05-02T22:10:25.530Z,101484.09
2023-05-02T22:12:57.989Z,101491.87
2023-05-02T22:15:30.792Z,101496.93
2023-05-02T22:18:05.062Z,101501.88
2023-05-02T22:20:38.129Z,101503.15
2023-05-02T22:23:11.170Z,101504.26
2023-05-02T22:25:44.927Z,101505.08
2023-05-02T22:28:17.077Z,101509.90
2023-05-02T22:30:49.234Z,101516.41
2023-05-02T22:33:21.771Z,101503.42
2023-05-02T22:35:53.884Z,101519.00
2023-05-02T22:38:26.826Z,101519.46
2023-05-02T22:40:59.515Z,101524.16
2023-05-02T22:43:32.135Z,101515.73
2023-05-02T22:46:04.619Z,101521.90
2023-05-02T22:48:37.084Z,101519.89
2023-05-02T22:51:09.585Z,101516.89
2023-05-02T22:53:42.668Z,101519.66
2023-05-02T22:56:15.652Z,101518.30
2023-05-02T22:58:49.910Z,101526.21
2023-05-02T23:01:22.293Z,101526.55
2023-05-02T23:03:54.962Z,101531.57
2023-05-02T23:06:28.851Z,101532.92
2023-05-02T23:09:01.180Z,101534.41
2023-05-02T23:11:33.614Z,101534.16
2023-05-02T23:14:05.988Z,101535.50
2023-05-02T23:16:38.496Z,101538.66
2023-05-02T23:19:11.904Z,101539.55
2023-05-02T23:21:44.221Z,101542.94
2023-05-02T23:24:16.359Z,101549.35
2023-05-02T23:26:48.637Z,101544.59
2023-05-02T23:29:20.897Z,101548.60
2023-05-02T23:31:54.788Z,101548.04
2023-05-02T23:34:27.470Z,101550.15
2023-05-02T23:36:59.768Z,101556.66
2023-05-02T23:39:32.812Z,101554.21
2023-05-02T23:42:05.660Z,101552.52
2023-05-02T23:44:38.155Z,101542.74
2023-05-02T23:47:10.874Z,101552.73
2023-05-02T23:49:43.346Z,101554.96
2023-05-02T23:52:15.474Z,101554.63
2023-05-02T23:54:47.631Z,101560.13
2023-05-02T23:57:20.142Z,101561.01
2023-05-02T23:59:52.638Z,101558.70
